createdAt,value
2022-11-30T00:01:15.283Z,35.00
2022-11-30T00:03:42.217Z,26.77
2022-11-30T00:06:14.604Z,30.93
2022-11-30T00:08:41.291Z,26.47
2022-11-30T00:11:17.891Z,25.67
2022-11-30T00:13:44.427Z,26.37
2022-11-30T00:16:10.940Z,49.77
2022-11-30T00:18:37.904Z,31.40
2022-11-30T00:21:06.424Z,28.13
2022-11-30T00:23:34.408Z,26.43
2022-11-30T00:26:02.518Z,27.40
2022-11-30T00:28:30.696Z,24.60
2022-11-30T00:31:01.620Z,26.90
2022-11-30T00:33:28.873Z,26.60
2022-11-30T00:36:00.148Z,22.80
2022-11-30T00:38:28.427Z,21.33
2022-11-30T00:40:56.522Z,24.00
2022-11-30T00:43:23.484Z,19.57
2022-11-30T00:45:50.134Z,17.77
2022-11-30T00:48:16.749Z,17.40
2022-11-30T00:50:43.275Z,17.90
2022-11-30T00:53:09.737Z,18.37
2022-11-30T00:55:36.243Z,17.97
2022-11-30T00:58:02.711Z,21.80
2022-11-30T01:00:29.379Z,27.03
2022-11-30T01:02:57.012Z,28.33
2022-11-30T01:05:23.446Z,25.60
2022-11-30T01:07:49.997Z,28.80
2022-11-30T01:10:17.065Z,27.17
2022-11-30T01:12:43.562Z,31.50
2022-11-30T01:15:10.722Z,24.13
2022-11-30T01:17:37.846Z,28.70
2022-11-30T01:20:06.347Z,30.50
2022-11-30T01:22:32.764Z,29.90
2022-11-30T01:24:59.653Z,24.20
2022-11-30T01:27:26.118Z,23.50
2022-11-30T01:29:52.599Z,27.37
2022-11-30T01:32:19.047Z,26.60
2022-11-30T01:34:45.911Z,31.47
2022-11-30T01:37:13.463Z,28.87
2022-11-30T01:39:40.037Z,33.40
2022-11-30T01:42:16.332Z,27.77
2022-11-30T01:44:55.115Z,30.23
2022-11-30T01:47:29.510Z,30.07
2022-11-30T01:50:11.249Z,25.50
2022-11-30T01:52:41.385Z,26.87
2022-11-30T01:55:18.417Z,29.43
2022-11-30T01:57:51.183Z,26.70
2022-11-30T02:00:18.763Z,28.10
2022-11-30T02:02:55.096Z,24.53
2022-11-30T02:05:22.004Z,32.70
2022-11-30T02:07:48.635Z,30.93
2022-11-30T02:10:17.893Z,30.77
2022-11-30T02:13:22.096Z,33.90
2022-11-30T02:16:10.521Z,27.47
2022-11-30T02:18:42.992Z,24.73
2022-11-30T02:21:18.499Z,20.20
2022-11-30T02:24:03.626Z,20.90
2022-11-30T02:27:01.154Z,20.13
2022-11-30T02:29:38.273Z,18.17
2022-11-30T02:32:16.980Z,21.40
2022-11-30T02:34:46.748Z,21.83
2022-11-30T02:37:14.745Z,19.40
2022-11-30T02:39:43.063Z,18.60
2022-11-30T02:42:14.237Z,17.63
2022-11-30T02:44:49.307Z,19.77
2022-11-30T02:47:36.569Z,20.50
2022-11-30T02:50:17.882Z,23.40
2022-11-30T02:52:45.324Z,24.27
2022-11-30T02:55:17.621Z,22.23
2022-11-30T02:57:44.164Z,21.87
2022-11-30T03:00:12.497Z,25.93
2022-11-30T03:02:40.130Z,23.23
2022-11-30T03:05:07.659Z,23.37
2022-11-30T03:07:34.217Z,22.13
2022-11-30T03:10:00.721Z,27.20
2022-11-30T03:12:27.488Z,22.70
2022-11-30T03:14:53.917Z,28.50
2022-11-30T03:17:20.361Z,24.47
2022-11-30T03:19:46.805Z,24.17
2022-11-30T03:22:13.267Z,22.90
2022-11-30T03:24:39.684Z,25.00
2022-11-30T03:27:06.196Z,25.77
2022-11-30T03:29:32.667Z,21.67
2022-11-30T03:31:59.116Z,24.33
2022-11-30T03:34:26.426Z,18.77
2022-11-30T03:36:53.236Z,20.17
2022-11-30T03:39:19.668Z,20.77
2022-11-30T03:41:46.076Z,19.27
2022-11-30T03:44:12.606Z,21.33
2022-11-30T03:46:39.293Z,19.47
2022-11-30T03:49:05.836Z,20.13
2022-11-30T03:51:32.279Z,19.93
2022-11-30T03:53:58.927Z,19.13
2022-11-30T03:56:25.658Z,19.87
2022-11-30T03:58:52.115Z,21.63
2022-11-30T04:01:23.895Z,20.27
2022-11-30T04:03:51.791Z,22.27
2022-11-30T04:06:19.460Z,22.33
2022-11-30T04:08:46.767Z,26.47
2022-11-30T04:11:13.440Z,22.40
2022-11-30T04:13:40.229Z,23.77
2022-11-30T04:16:07.509Z,22.30
2022-11-30T04:18:35.496Z,22.93
2022-11-30T04:21:02.058Z,26.60
2022-11-30T04:23:34.708Z,21.63
2022-11-30T04:26:04.114Z,23.83
2022-11-30T04:28:30.699Z,22.83
2022-11-30T04:30:57.384Z,21.67
2022-11-30T04:33:23.866Z,22.07
2022-11-30T04:35:54.111Z,19.83
2022-11-30T04:38:20.581Z,21.80
2022-11-30T04:40:46.994Z,21.00
2022-11-30T04:43:14.003Z,19.33
2022-11-30T04:45:41.115Z,18.93
2022-11-30T04:48:07.722Z,18.37
2022-11-30T04:50:34.737Z,22.63
2022-11-30T04:53:01.284Z,21.07
2022-11-30T04:55:27.861Z,22.23
2022-11-30T04:57:54.381Z,23.77
2022-11-30T05:00:21.092Z,28.23
2022-11-30T05:02:52.745Z,28.37
2022-11-30T05:05:20.318Z,33.53
2022-11-30T05:07:57.095Z,24.20
2022-11-30T05:10:25.390Z,26.47
2022-11-30T05:12:52.306Z,27.23
2022-11-30T05:15:19.282Z,27.87
2022-11-30T05:17:45.742Z,28.40
2022-11-30T05:20:12.194Z,28.13
2022-11-30T05:22:38.664Z,28.43
2022-11-30T05:25:05.496Z,30.63
2022-11-30T05:27:31.914Z,27.47
2022-11-30T05:29:58.940Z,25.87
2022-11-30T05:32:25.512Z,30.53
2022-11-30T05:34:52.288Z,31.83
2022-11-30T05:37:19.777Z,30.83
2022-11-30T05:39:46.439Z,31.10
2022-11-30T05:42:12.865Z,31.67
2022-11-30T05:44:39.317Z,26.47
2022-11-30T05:47:05.946Z,21.80
2022-11-30T05:49:32.368Z,23.03
2022-11-30T05:51:58.882Z,23.63
2022-11-30T05:54:25.277Z,25.00
2022-11-30T05:56:54.899Z,23.03
2022-11-30T05:59:22.521Z,25.87
2022-11-30T06:01:49.181Z,27.47
2022-11-30T06:04:15.714Z,28.00
2022-11-30T06:06:42.180Z,23.63
2022-11-30T06:09:08.615Z,27.13
2022-11-30T06:11:35.009Z,27.73
2022-11-30T06:14:01.594Z,30.50
2022-11-30T06:16:28.246Z,28.40
2022-11-30T06:18:54.748Z,30.43
2022-11-30T06:21:24.379Z,33.13
2022-11-30T06:23:51.733Z,27.20
2022-11-30T06:26:18.215Z,32.17
2022-11-30T06:28:48.273Z,32.93
2022-11-30T06:31:15.747Z,32.13
2022-11-30T06:33:42.362Z,30.13
2022-11-30T06:36:09.364Z,32.37
2022-11-30T06:38:35.774Z,34.07
2022-11-30T06:41:07.722Z,32.60
2022-11-30T06:43:39.013Z,34.50
2022-11-30T06:46:07.105Z,34.03
2022-11-30T06:48:34.746Z,36.87
2022-11-30T06:51:01.887Z,38.17
2022-11-30T06:53:28.333Z,32.60
2022-11-30T06:55:54.783Z,35.93
2022-11-30T06:58:21.807Z,36.10
2022-11-30T07:00:48.484Z,40.10
2022-11-30T07:03:15.174Z,38.63
2022-11-30T07:05:46.192Z,32.13
2022-11-30T07:08:15.370Z,30.00
2022-11-30T07:10:46.816Z,30.07
2022-11-30T07:13:16.085Z,31.17
2022-11-30T07:15:43.299Z,29.43
2022-11-30T07:18:10.108Z,27.70
2022-11-30T07:20:38.843Z,31.23
2022-11-30T07:23:24.896Z,32.70
2022-11-30T07:26:09.168Z,32.90
2022-11-30T07:28:37.820Z,30.33
2022-11-30T07:31:16.638Z,30.23
2022-11-30T07:33:43.806Z,34.63
2022-11-30T07:36:10.956Z,32.80
2022-11-30T07:38:38.408Z,38.13
2022-11-30T07:41:05.285Z,39.10
2022-11-30T07:43:32.968Z,36.70
2022-11-30T07:46:00.591Z,34.93
2022-11-30T07:48:27.702Z,40.77
2022-11-30T07:50:54.621Z,37.20
2022-11-30T07:53:21.146Z,40.97
2022-11-30T07:55:50.520Z,41.20
2022-11-30T07:58:19.231Z,43.57
2022-11-30T08:00:45.743Z,45.20
2022-11-30T08:03:12.363Z,41.17
2022-11-30T08:05:38.845Z,37.90
2022-11-30T08:08:05.297Z,40.13
2022-11-30T08:10:31.843Z,41.77
2022-11-30T08:12:58.334Z,42.17
2022-11-30T08:15:31.892Z,40.70
2022-11-30T08:18:05.089Z,38.90
2022-11-30T08:20:31.762Z,37.67
2022-11-30T08:22:58.719Z,37.10
2022-11-30T08:25:25.143Z,38.57
2022-11-30T08:27:51.569Z,36.70
2022-11-30T08:30:18.004Z,34.33
2022-11-30T08:32:44.561Z,35.73
2022-11-30T08:35:10.969Z,35.47
2022-11-30T08:37:37.889Z,37.80
2022-11-30T08:40:05.987Z,34.27
2022-11-30T08:42:32.482Z,30.37
2022-11-30T08:44:59.104Z,34.50
2022-11-30T08:47:25.787Z,30.57
2022-11-30T08:49:52.672Z,32.93
2022-11-30T08:52:19.368Z,31.10
2022-11-30T08:54:47.921Z,32.80
2022-11-30T08:57:17.547Z,32.33
2022-11-30T08:59:44.092Z,33.13
2022-11-30T09:02:13.325Z,28.97
2022-11-30T09:04:39.806Z,32.57
2022-11-30T09:07:06.343Z,32.50
2022-11-30T09:09:32.819Z,28.10
2022-11-30T09:11:59.300Z,32.10
2022-11-30T09:14:25.820Z,24.77
2022-11-30T09:16:54.082Z,27.50
2022-11-30T09:19:21.537Z,28.03
2022-11-30T09:21:52.024Z,25.83
2022-11-30T09:24:19.761Z,30.57
2022-11-30T09:26:46.260Z,25.43
2022-11-30T09:29:12.824Z,29.70
2022-11-30T09:31:39.309Z,31.47
2022-11-30T09:34:05.764Z,28.30
2022-11-30T09:36:33.843Z,28.30
2022-11-30T09:39:00.272Z,25.30
2022-11-30T09:41:50.813Z,21.90
2022-11-30T09:44:50.613Z,23.30
2022-11-30T09:47:35.819Z,23.17
2022-11-30T09:50:10.445Z,22.00
2022-11-30T09:52:42.891Z,24.97
2022-11-30T09:55:13.558Z,26.50
2022-11-30T09:57:45.005Z,23.83
2022-11-30T10:00:18.979Z,20.40
2022-11-30T10:02:45.782Z,22.00
2022-11-30T10:05:16.212Z,21.57
2022-11-30T10:08:17.810Z,18.47
2022-11-30T10:11:03.199Z,20.47
2022-11-30T10:13:41.532Z,19.43
2022-11-30T10:16:24.652Z,20.40
2022-11-30T10:19:06.095Z,19.27
2022-11-30T10:21:54.965Z,19.13
2022-11-30T10:24:33.441Z,21.40
2022-11-30T10:27:06.659Z,22.90
2022-11-30T10:29:41.552Z,19.73
2022-11-30T10:32:22.012Z,20.73
2022-11-30T10:34:53.138Z,17.47
2022-11-30T10:37:27.099Z,18.07
2022-11-30T10:40:13.422Z,17.47
2022-11-30T10:42:50.079Z,16.53
2022-11-30T10:45:21.177Z,18.03
2022-11-30T10:48:07.745Z,21.87
2022-11-30T10:50:34.496Z,19.57
2022-11-30T10:53:01.633Z,19.27
2022-11-30T10:55:31.459Z,20.70
2022-11-30T10:58:26.403Z,22.97
2022-11-30T11:01:21.553Z,23.43
2022-11-30T11:03:48.400Z,22.00
2022-11-30T11:06:23.304Z,23.40
2022-11-30T11:08:51.147Z,20.80
2022-11-30T11:11:30.438Z,23.10
2022-11-30T11:14:18.107Z,22.23
2022-11-30T11:16:54.892Z,22.23
2022-11-30T11:19:46.501Z,22.40
2022-11-30T11:22:13.048Z,26.13
2022-11-30T11:24:39.704Z,24.47
2022-11-30T11:27:06.313Z,23.90
2022-11-30T11:29:35.090Z,28.13
2022-11-30T11:32:18.011Z,25.50
2022-11-30T11:34:50.708Z,24.63
2022-11-30T11:37:33.606Z,27.00
2022-11-30T11:40:16.324Z,23.87
2022-11-30T11:42:47.767Z,23.13
2022-11-30T11:45:17.964Z,27.20
2022-11-30T11:47:45.776Z,27.27
2022-11-30T11:50:12.271Z,24.27
2022-11-30T11:52:38.924Z,27.27
2022-11-30T11:55:13.691Z,26.13
2022-11-30T11:58:02.380Z,23.13
2022-11-30T12:00:29.016Z,23.60
2022-11-30T12:03:13.977Z,23.57
2022-11-30T12:05:44.434Z,20.63
2022-11-30T12:08:19.256Z,21.63
2022-11-30T12:10:55.597Z,23.13
2022-11-30T12:13:27.231Z,19.87
2022-11-30T12:16:17.091Z,17.40
2022-11-30T12:18:52.036Z,20.20
2022-11-30T12:21:21.534Z,20.37
2022-11-30T12:24:13.224Z,20.60
2022-11-30T12:26:48.355Z,18.43
2022-11-30T12:29:25.125Z,22.47
2022-11-30T12:32:02.925Z,18.10
2022-11-30T12:34:49.326Z,19.80
2022-11-30T12:37:28.131Z,20.73
2022-11-30T12:40:32.971Z,22.47
2022-11-30T12:43:25.530Z,23.67
2022-11-30T12:46:03.742Z,22.40
2022-11-30T12:49:05.634Z,22.93
2022-11-30T12:51:58.880Z,26.07
2022-11-30T12:54:48.266Z,23.50
2022-11-30T12:57:19.565Z,25.40
2022-11-30T13:00:02.361Z,25.80
2022-11-30T13:02:39.639Z,26.93
2022-11-30T13:05:14.001Z,28.30
2022-11-30T13:07:51.444Z,29.90
2022-11-30T13:10:44.224Z,27.73
2022-11-30T13:13:18.313Z,30.63
2022-11-30T13:15:45.034Z,29.00
2022-11-30T13:18:17.755Z,29.07
2022-11-30T13:21:06.936Z,26.97
2022-11-30T13:24:04.313Z,24.40
2022-11-30T13:26:39.027Z,24.73
2022-11-30T13:29:22.745Z,25.13
2022-11-30T13:32:04.345Z,26.27
2022-11-30T13:34:32.843Z,22.07
2022-11-30T13:37:02.303Z,20.93
2022-11-30T13:39:33.953Z,22.63
2022-11-30T13:42:00.433Z,19.73
2022-11-30T13:44:33.641Z,18.50
2022-11-30T13:47:34.523Z,18.87
2022-11-30T13:50:07.894Z,16.97
2022-11-30T13:53:02.385Z,16.93
2022-11-30T13:56:05.276Z,17.73
2022-11-30T13:58:32.420Z,18.07
2022-11-30T14:01:21.039Z,19.27
2022-11-30T14:04:15.899Z,17.70
2022-11-30T14:06:42.314Z,16.47
2022-11-30T14:09:41.287Z,18.23
2022-11-30T14:12:37.147Z,17.30
2022-11-30T14:15:31.663Z,18.17
2022-11-30T14:17:59.008Z,15.27
2022-11-30T14:20:37.522Z,17.47
2022-11-30T14:23:13.102Z,15.53
2022-11-30T14:25:46.914Z,17.33
2022-11-30T14:28:17.567Z,16.60
2022-11-30T14:30:44.252Z,17.97
2022-11-30T14:33:39.506Z,17.30
2022-11-30T14:36:07.625Z,17.50
2022-11-30T14:38:41.059Z,15.80
2022-11-30T14:41:19.394Z,16.47
2022-11-30T14:44:06.945Z,16.00
2022-11-30T14:46:34.983Z,14.47
2022-11-30T14:49:14.581Z,14.20
2022-11-30T14:51:44.677Z,14.80
2022-11-30T14:54:36.498Z,17.10
2022-11-30T14:57:13.394Z,14.33
2022-11-30T14:59:53.112Z,12.50
2022-11-30T15:02:26.374Z,12.53
2022-11-30T15:04:55.567Z,13.20
2022-11-30T15:07:23.589Z,13.50
2022-11-30T15:09:56.640Z,17.03
2022-11-30T15:12:24.784Z,16.20
2022-11-30T15:15:17.015Z,16.50
2022-11-30T15:17:58.559Z,14.43
2022-11-30T15:20:29.755Z,15.03
2022-11-30T15:23:00.375Z,15.00
2022-11-30T15:25:58.322Z,14.23
2022-11-30T15:28:33.972Z,14.63
2022-11-30T15:31:05.271Z,12.93
2022-11-30T15:33:40.553Z,13.03
2022-11-30T15:36:28.237Z,10.73
2022-11-30T15:38:54.309Z,11.77
2022-11-30T15:41:23.836Z,12.40
2022-11-30T15:43:56.411Z,11.17
2022-11-30T15:46:41.208Z,10.27
2022-11-30T15:49:10.830Z,10.60
2022-11-30T15:51:39.627Z,9.90
2022-11-30T15:54:06.113Z,9.23
2022-11-30T15:56:32.639Z,11.03
2022-11-30T15:59:07.791Z,10.80
2022-11-30T16:02:02.721Z,9.27
2022-11-30T16:04:58.168Z,11.43
2022-11-30T16:07:28.356Z,10.37
2022-11-30T16:10:15.194Z,10.30
2022-11-30T16:12:43.778Z,10.50
2022-11-30T16:15:20.134Z,9.93
2022-11-30T16:17:46.630Z,9.03
2022-11-30T16:20:14.034Z,9.23
2022-11-30T16:22:46.208Z,12.63
2022-11-30T16:25:18.149Z,11.37
2022-11-30T16:27:44.705Z,11.87
2022-11-30T16:30:16.719Z,12.30
2022-11-30T16:32:43.517Z,15.23
2022-11-30T16:35:26.120Z,16.53
2022-11-30T16:37:53.420Z,14.07
2022-11-30T16:40:21.024Z,14.67
2022-11-30T16:42:49.567Z,16.53
2022-11-30T16:45:21.314Z,15.43
2022-11-30T16:47:48.198Z,17.13
2022-11-30T16:50:15.102Z,16.90
2022-11-30T16:52:42.669Z,20.97
2022-11-30T16:55:21.648Z,17.40
2022-11-30T16:57:49.303Z,20.80
2022-11-30T17:00:19.106Z,19.40
2022-11-30T17:03:02.408Z,21.03
2022-11-30T17:05:28.909Z,22.37
2022-11-30T17:07:55.447Z,20.77
2022-11-30T17:10:22.484Z,21.57
2022-11-30T17:12:49.171Z,21.60
2022-11-30T17:15:19.007Z,20.37
2022-11-30T17:17:45.547Z,21.53
2022-11-30T17:20:14.203Z,21.70
2022-11-30T17:22:41.548Z,19.47
2022-11-30T17:25:13.283Z,22.33
2022-11-30T17:27:39.854Z,22.13
2022-11-30T17:30:07.054Z,22.10
2022-11-30T17:32:33.758Z,22.80
2022-11-30T17:35:00.224Z,23.07
2022-11-30T17:37:26.781Z,24.80
2022-11-30T17:39:53.206Z,25.60
2022-11-30T17:42:19.693Z,25.47
2022-11-30T17:44:46.570Z,23.90
2022-11-30T17:47:13.329Z,26.73
2022-11-30T17:49:40.354Z,27.07
2022-11-30T17:52:06.799Z,24.30
2022-11-30T17:54:33.200Z,26.57
2022-11-30T17:56:59.726Z,24.00
2022-11-30T17:59:26.137Z,25.07
2022-11-30T18:01:52.607Z,24.30
2022-11-30T18:04:19.106Z,26.23
2022-11-30T18:06:45.500Z,23.97
2022-11-30T18:09:12.357Z,24.67
2022-11-30T18:11:38.946Z,23.47
2022-11-30T18:14:05.397Z,23.03
2022-11-30T18:16:34.311Z,23.47
2022-11-30T18:19:00.763Z,24.23
2022-11-30T18:21:29.605Z,22.90
2022-11-30T18:23:57.792Z,24.60
2022-11-30T18:26:26.030Z,26.97
2022-11-30T18:28:54.612Z,24.20
2022-11-30T18:31:21.890Z,25.97
2022-11-30T18:33:48.528Z,26.63
2022-11-30T18:36:15.069Z,26.80
2022-11-30T18:38:41.662Z,27.87
2022-11-30T18:41:08.064Z,23.43
2022-11-30T18:43:35.140Z,24.53
2022-11-30T18:46:03.823Z,24.63
2022-11-30T18:48:30.398Z,23.83
2022-11-30T18:50:56.887Z,24.40
2022-11-30T18:53:23.894Z,24.77
2022-11-30T18:55:50.770Z,24.00
2022-11-30T18:58:17.461Z,24.67
2022-11-30T19:00:43.898Z,24.33
2022-11-30T19:03:10.603Z,24.80
2022-11-30T19:05:38.321Z,24.97
2022-11-30T19:08:07.818Z,24.33
2022-11-30T19:10:36.154Z,22.57
2022-11-30T19:13:04.142Z,24.30
2022-11-30T19:15:36.155Z,22.53
2022-11-30T19:18:02.645Z,24.03
2022-11-30T19:20:29.023Z,22.83
2022-11-30T19:22:55.476Z,21.40
2022-11-30T19:25:21.896Z,24.13
2022-11-30T19:27:48.307Z,21.90
2022-11-30T19:30:15.277Z,23.00
2022-11-30T19:32:41.716Z,20.83
2022-11-30T19:35:08.277Z,23.03
2022-11-30T19:37:34.770Z,23.53
2022-11-30T19:40:01.292Z,21.60
2022-11-30T19:42:29.884Z,24.03
2022-11-30T19:44:56.327Z,22.50
2022-11-30T19:47:22.785Z,24.53
2022-11-30T19:49:49.188Z,24.37
2022-11-30T19:52:15.615Z,23.47
2022-11-30T19:54:42.115Z,25.30
2022-11-30T19:57:08.569Z,27.43
2022-11-30T19:59:35.086Z,23.33
2022-11-30T20:02:01.916Z,26.00
2022-11-30T20:04:28.393Z,25.53
2022-11-30T20:06:54.910Z,26.17
2022-11-30T20:09:21.459Z,19.73
2022-11-30T20:11:47.852Z,20.07
2022-11-30T20:14:17.591Z,24.93
2022-11-30T20:16:44.154Z,20.43
2022-11-30T20:19:10.812Z,25.37
2022-11-30T20:21:37.367Z,19.47
2022-11-30T20:24:07.112Z,22.53
2022-11-30T20:26:39.591Z,24.43
2022-11-30T20:29:08.472Z,22.30
2022-11-30T20:31:36.447Z,23.97
2022-11-30T20:34:03.591Z,23.83
2022-11-30T20:36:30.420Z,22.13
2022-11-30T20:38:58.300Z,24.33
2022-11-30T20:41:25.449Z,21.63
2022-11-30T20:43:52.376Z,23.23
2022-11-30T20:46:21.879Z,20.87
2022-11-30T20:48:48.612Z,23.87
2022-11-30T20:51:36.631Z,21.13
2022-11-30T20:54:07.103Z,21.97
2022-11-30T20:56:37.502Z,23.63
2022-11-30T20:59:06.379Z,20.67
2022-11-30T21:01:33.643Z,17.63
2022-11-30T21:04:00.788Z,19.33
2022-11-30T21:06:29.137Z,19.37
2022-11-30T21:08:55.800Z,20.47
2022-11-30T21:11:22.583Z,18.10
2022-11-30T21:13:50.065Z,18.63
2022-11-30T21:16:24.007Z,19.63
2022-11-30T21:18:52.240Z,18.47
2022-11-30T21:21:21.239Z,16.37
2022-11-30T21:23:49.237Z,17.20
2022-11-30T21:26:18.506Z,17.03
2022-11-30T21:28:46.119Z,17.50
2022-11-30T21:31:13.000Z,17.53
2022-11-30T21:33:39.686Z,18.50
2022-11-30T21:36:07.673Z,16.90
2022-11-30T21:38:34.573Z,15.73
2022-11-30T21:41:01.857Z,16.20
2022-11-30T21:43:29.827Z,15.43
2022-11-30T21:46:17.491Z,17.10
2022-11-30T21:48:46.074Z,16.57
2022-11-30T21:51:15.596Z,18.27
2022-11-30T21:53:47.572Z,18.07
2022-11-30T21:56:20.408Z,20.43
2022-11-30T21:58:48.091Z,18.77
2022-11-30T22:01:19.547Z,19.07
2022-11-30T22:03:46.349Z,20.40
2022-11-30T22:06:15.567Z,18.73
2022-11-30T22:08:42.921Z,19.80
2022-11-30T22:11:21.469Z,20.97
2022-11-30T22:13:53.445Z,19.37
2022-11-30T22:16:21.160Z,20.17
2022-11-30T22:18:48.064Z,18.77
2022-11-30T22:21:19.981Z,19.67
2022-11-30T22:23:51.632Z,18.30
2022-11-30T22:26:22.262Z,19.80
2022-11-30T22:28:54.377Z,22.93
2022-11-30T22:31:23.462Z,18.97
2022-11-30T22:33:50.068Z,22.00
2022-11-30T22:36:25.827Z,18.90
2022-11-30T22:38:56.966Z,18.40
2022-11-30T22:41:23.721Z,19.63
2022-11-30T22:43:50.249Z,17.53
2022-11-30T22:46:19.621Z,18.63
2022-11-30T22:48:46.933Z,16.97
2022-11-30T22:51:15.959Z,18.73
2022-11-30T22:53:42.663Z,16.80
2022-11-30T22:56:15.479Z,19.07
2022-11-30T22:58:43.595Z,15.83
2022-11-30T23:01:13.064Z,18.30
2022-11-30T23:03:40.976Z,16.60
2022-11-30T23:06:08.451Z,16.13
2022-11-30T23:08:37.511Z,17.23
2022-11-30T23:11:09.797Z,15.37
2022-11-30T23:13:36.687Z,15.27
2022-11-30T23:16:04.771Z,17.43
2022-11-30T23:18:40.679Z,16.30
2022-11-30T23:21:11.037Z,15.23
2022-11-30T23:23:37.488Z,14.80
2022-11-30T23:26:15.645Z,15.63
2022-11-30T23:28:44.063Z,14.70
2022-11-30T23:31:32.179Z,15.33
2022-11-30T23:34:02.763Z,16.70
2022-11-30T23:36:29.183Z,12.73
2022-11-30T23:39:06.948Z,15.23
2022-11-30T23:41:33.524Z,14.03
2022-11-30T23:44:00.031Z,14.00
2022-11-30T23:46:26.595Z,14.50
2022-11-30T23:48:53.164Z,15.20
2022-11-30T23:51:19.604Z,13.23
2022-11-30T23:53:46.383Z,13.33
2022-11-30T23:56:15.581Z,13.30
2022-11-30T23:58:42.444Z,14.93
